createdAt,value
2022-11-22T00:01:21.467Z,9.40
2022-11-22T00:03:49.884Z,9.70
2022-11-22T00:06:19.406Z,9.30
2022-11-22T00:08:48.369Z,10.70
2022-11-22T00:11:16.769Z,11.00
2022-11-22T00:13:45.400Z,10.40
2022-11-22T00:16:13.970Z,10.50
2022-11-22T00:18:42.420Z,9.90
2022-11-22T00:21:10.688Z,10.30
2022-11-22T00:23:40.769Z,10.30
2022-11-22T00:26:12.025Z,11.00
2022-11-22T00:28:40.903Z,12.30
2022-11-22T00:31:09.265Z,11.70
2022-11-22T00:33:37.698Z,12.30
2022-11-22T00:36:06.223Z,11.50
2022-11-22T00:38:34.876Z,11.40
2022-11-22T00:41:04.512Z,11.90
2022-11-22T00:43:33.071Z,11.80
2022-11-22T00:46:01.591Z,12.00
2022-11-22T00:48:29.964Z,12.30
2022-11-22T00:50:58.369Z,11.80
2022-11-22T00:53:27.061Z,12.00
2022-11-22T00:55:55.356Z,12.50
2022-11-22T00:58:24.840Z,12.70
2022-11-22T01:00:56.557Z,13.60
2022-11-22T01:03:25.575Z,12.80
2022-11-22T01:05:53.896Z,13.40
2022-11-22T01:08:22.180Z,13.70
2022-11-22T01:10:55.972Z,13.20
2022-11-22T01:13:25.577Z,12.70
2022-11-22T01:15:54.109Z,13.20
2022-11-22T01:18:22.438Z,11.60
2022-11-22T01:20:50.829Z,11.20
2022-11-22T01:23:19.388Z,11.60
2022-11-22T01:25:47.799Z,12.00
2022-11-22T01:28:16.086Z,12.80
2022-11-22T01:30:46.030Z,12.30
2022-11-22T01:33:14.641Z,11.90
2022-11-22T01:35:42.838Z,12.10
2022-11-22T01:38:11.191Z,13.30
2022-11-22T01:40:39.744Z,12.90
2022-11-22T01:43:17.435Z,12.70
2022-11-22T01:45:50.016Z,11.30
2022-11-22T01:48:47.720Z,11.40
2022-11-22T01:51:24.952Z,10.40
2022-11-22T01:53:54.876Z,11.50
2022-11-22T01:56:24.205Z,12.10
2022-11-22T01:58:57.691Z,12.30
2022-11-22T02:01:28.583Z,12.00
2022-11-22T02:04:00.214Z,12.00
2022-11-22T02:06:39.186Z,11.60
2022-11-22T02:09:11.959Z,11.60
2022-11-22T02:11:44.594Z,10.90
2022-11-22T02:14:14.178Z,11.30
2022-11-22T02:16:44.728Z,10.50
2022-11-22T02:19:17.833Z,10.30
2022-11-22T02:21:49.667Z,10.40
2022-11-22T02:24:22.610Z,10.40
2022-11-22T02:26:52.240Z,11.10
2022-11-22T02:29:21.373Z,10.70
2022-11-22T02:31:49.723Z,10.90
2022-11-22T02:34:18.092Z,11.30
2022-11-22T02:36:52.397Z,11.00
2022-11-22T02:39:25.326Z,10.50
2022-11-22T02:41:56.681Z,10.40
2022-11-22T02:44:26.274Z,10.90
2022-11-22T02:46:56.098Z,10.80
2022-11-22T02:49:25.943Z,10.50
2022-11-22T02:51:54.365Z,10.60
2022-11-22T02:54:23.015Z,10.80
2022-11-22T02:56:51.444Z,10.30
2022-11-22T02:59:20.972Z,10.70
2022-11-22T03:01:49.947Z,11.10
2022-11-22T03:04:25.868Z,10.60
2022-11-22T03:06:55.810Z,10.40
2022-11-22T03:09:24.420Z,10.50
2022-11-22T03:11:52.903Z,10.20
2022-11-22T03:14:22.801Z,10.70
2022-11-22T03:16:51.255Z,9.90
2022-11-22T03:19:19.535Z,10.90
2022-11-22T03:21:47.907Z,10.60
2022-11-22T03:24:16.482Z,11.20
2022-11-22T03:26:48.989Z,10.60
2022-11-22T03:29:19.177Z,11.30
2022-11-22T03:31:48.741Z,11.80
2022-11-22T03:34:17.352Z,11.50
2022-11-22T03:36:45.650Z,10.80
2022-11-22T03:39:14.091Z,10.70
2022-11-22T03:41:42.608Z,10.70
2022-11-22T03:44:11.299Z,11.00
2022-11-22T03:46:39.573Z,11.40
2022-11-22T03:49:09.092Z,11.10
2022-11-22T03:51:37.311Z,10.80
2022-11-22T03:54:05.785Z,10.80
2022-11-22T03:56:34.025Z,11.90
2022-11-22T03:59:02.461Z,11.30
2022-11-22T04:01:30.901Z,11.90
2022-11-22T04:03:59.428Z,11.50
2022-11-22T04:06:28.958Z,13.00
2022-11-22T04:08:57.256Z,13.50
2022-11-22T04:11:25.685Z,13.50
2022-11-22T04:14:11.138Z,13.00
2022-11-22T04:16:39.829Z,12.90
2022-11-22T04:19:08.248Z,13.80
2022-11-22T04:21:37.635Z,12.90
2022-11-22T04:24:25.140Z,14.10
2022-11-22T04:26:53.809Z,13.70
2022-11-22T04:29:22.794Z,12.40
2022-11-22T04:32:09.114Z,11.80
2022-11-22T04:34:38.063Z,12.30
2022-11-22T04:37:07.973Z,12.30
2022-11-22T04:39:36.436Z,11.70
2022-11-22T04:42:22.404Z,11.60
2022-11-22T04:44:50.706Z,11.30
2022-11-22T04:47:33.997Z,10.40
2022-11-22T04:50:02.683Z,10.40
2022-11-22T04:52:49.815Z,11.20
2022-11-22T04:55:18.472Z,12.10
2022-11-22T04:57:46.773Z,11.00
2022-11-22T05:00:15.824Z,11.10
2022-11-22T05:02:44.356Z,10.50
2022-11-22T05:05:12.578Z,11.50
2022-11-22T05:07:42.391Z,10.80
2022-11-22T05:10:12.010Z,10.40
2022-11-22T05:12:42.031Z,9.90
2022-11-22T05:15:11.288Z,9.70
2022-11-22T05:17:40.089Z,9.80
2022-11-22T05:20:09.886Z,9.30
2022-11-22T05:22:55.932Z,9.30
2022-11-22T05:25:25.887Z,9.20
2022-11-22T05:27:57.024Z,9.30
2022-11-22T05:30:25.393Z,9.40
2022-11-22T05:32:56.139Z,9.20
2022-11-22T05:35:24.549Z,8.90
2022-11-22T05:37:53.124Z,9.30
2022-11-22T05:40:21.394Z,9.40
2022-11-22T05:42:50.946Z,8.90
2022-11-22T05:45:19.720Z,8.60
2022-11-22T05:47:48.121Z,8.90
2022-11-22T05:50:16.544Z,9.20
2022-11-22T05:52:44.914Z,9.10
2022-11-22T05:55:13.106Z,8.90
2022-11-22T05:57:41.379Z,9.30
2022-11-22T06:00:12.062Z,9.30
2022-11-22T06:02:40.607Z,9.30
2022-11-22T06:05:09.640Z,9.00
2022-11-22T06:07:38.132Z,9.80
2022-11-22T06:10:06.874Z,9.50
2022-11-22T06:12:35.534Z,9.80
2022-11-22T06:15:03.929Z,9.80
2022-11-22T06:17:33.547Z,9.60
2022-11-22T06:20:06.216Z,8.90
2022-11-22T06:22:35.310Z,9.70
2022-11-22T06:25:03.780Z,9.30
2022-11-22T06:27:32.064Z,9.70
2022-11-22T06:30:00.468Z,10.00
2022-11-22T06:32:28.871Z,9.60
2022-11-22T06:34:58.384Z,10.30
2022-11-22T06:37:26.691Z,10.50
2022-11-22T06:39:55.245Z,11.00
2022-11-22T06:42:23.926Z,10.20
2022-11-22T06:44:52.273Z,10.50
2022-11-22T06:47:20.662Z,9.40
2022-11-22T06:49:49.035Z,10.30
2022-11-22T06:52:18.709Z,10.50
2022-11-22T06:54:46.955Z,10.10
2022-11-22T06:57:15.560Z,10.00
2022-11-22T06:59:43.968Z,10.40
2022-11-22T07:02:13.453Z,9.90
2022-11-22T07:05:02.341Z,10.10
2022-11-22T07:07:31.466Z,9.40
2022-11-22T07:09:59.708Z,9.70
2022-11-22T07:12:28.252Z,9.20
2022-11-22T07:14:56.520Z,9.40
2022-11-22T07:17:25.081Z,9.30
2022-11-22T07:19:53.343Z,10.10
2022-11-22T07:22:21.935Z,10.80
2022-11-22T07:24:51.358Z,10.50
2022-11-22T07:27:19.767Z,10.30
2022-11-22T07:29:47.990Z,10.90
2022-11-22T07:32:16.635Z,11.40
2022-11-22T07:34:45.165Z,10.50
2022-11-22T07:37:13.512Z,10.00
2022-11-22T07:39:41.713Z,11.10
2022-11-22T07:42:11.390Z,10.60
2022-11-22T07:44:39.726Z,11.30
2022-11-22T07:47:08.277Z,10.30
2022-11-22T07:49:36.625Z,10.70
2022-11-22T07:52:04.945Z,11.00
2022-11-22T07:54:33.242Z,10.00
2022-11-22T07:57:01.606Z,9.90
2022-11-22T07:59:31.423Z,9.50
2022-11-22T08:02:00.058Z,9.70
2022-11-22T08:04:28.435Z,10.00
2022-11-22T08:06:56.805Z,9.60
2022-11-22T08:09:25.099Z,9.10
2022-11-22T08:11:53.654Z,9.20
2022-11-22T08:14:22.108Z,9.60
2022-11-22T08:16:51.705Z,9.40
2022-11-22T08:19:20.409Z,9.20
2022-11-22T08:21:55.339Z,10.00
2022-11-22T08:24:26.682Z,9.30
2022-11-22T08:26:55.082Z,9.70
2022-11-22T08:29:23.489Z,9.80
2022-11-22T08:31:53.116Z,10.10
2022-11-22T08:34:21.560Z,10.00
2022-11-22T08:36:49.802Z,9.50
2022-11-22T08:39:18.347Z,10.10
2022-11-22T08:41:46.794Z,9.90
2022-11-22T08:44:15.210Z,10.30
2022-11-22T08:46:43.484Z,10.10
2022-11-22T08:49:13.813Z,10.90
2022-11-22T08:51:44.967Z,10.40
2022-11-22T08:54:13.815Z,11.40
2022-11-22T08:56:42.492Z,11.10
2022-11-22T08:59:10.908Z,10.00
2022-11-22T09:01:39.504Z,10.60
2022-11-22T09:04:08.052Z,11.00
2022-11-22T09:09:37.338Z,10.50
2022-11-22T09:12:06.678Z,10.90
2022-11-22T09:14:34.975Z,11.10
2022-11-22T09:17:03.249Z,10.80
2022-11-22T09:19:31.841Z,11.00
2022-11-22T09:22:01.845Z,11.20
2022-11-22T09:24:30.219Z,11.30
2022-11-22T09:26:58.580Z,11.60
2022-11-22T09:29:27.899Z,11.60
2022-11-22T09:31:57.274Z,11.10
2022-11-22T09:34:25.845Z,10.90
2022-11-22T09:36:54.130Z,11.60
2022-11-22T09:39:24.473Z,11.60
2022-11-22T09:42:15.541Z,11.60
2022-11-22T09:44:57.162Z,12.00
2022-11-22T09:47:38.118Z,11.00
2022-11-22T09:50:17.041Z,10.80
2022-11-22T09:52:52.381Z,11.00
2022-11-22T09:55:26.355Z,11.70
2022-11-22T09:58:07.338Z,10.60
2022-11-22T10:00:36.602Z,10.80
2022-11-22T10:03:12.569Z,11.30
2022-11-22T10:05:51.014Z,11.40
2022-11-22T10:08:38.530Z,11.30
2022-11-22T10:11:16.091Z,11.90
2022-11-22T10:13:56.033Z,11.40
2022-11-22T10:16:32.224Z,11.80
2022-11-22T10:19:04.021Z,11.40
2022-11-22T10:21:32.425Z,11.70
2022-11-22T10:24:01.268Z,11.30
2022-11-22T10:26:33.786Z,10.90
2022-11-22T10:29:14.020Z,11.10
2022-11-22T10:31:48.926Z,11.10
2022-11-22T10:34:23.044Z,11.70
2022-11-22T10:36:57.020Z,11.10
2022-11-22T10:39:50.657Z,12.00
2022-11-22T10:42:48.791Z,11.30
2022-11-22T10:45:23.777Z,11.70
2022-11-22T10:48:03.507Z,11.70
2022-11-22T10:50:38.081Z,12.40
2022-11-22T10:53:14.449Z,11.80
2022-11-22T10:55:54.843Z,11.70
2022-11-22T10:58:36.205Z,12.20
2022-11-22T11:01:11.666Z,12.00
2022-11-22T11:03:43.144Z,12.80
2022-11-22T11:06:24.354Z,12.80
2022-11-22T11:09:55.062Z,10.90
2022-11-22T11:11:52.641Z,10.00
2022-11-22T11:14:28.894Z,9.70
2022-11-22T11:16:57.654Z,9.60
2022-11-22T11:19:27.989Z,9.40
2022-11-22T11:22:00.915Z,9.40
2022-11-22T11:24:31.290Z,9.60
2022-11-22T11:27:01.699Z,9.40
2022-11-22T11:29:42.099Z,9.50
2022-11-22T11:32:13.278Z,9.50
2022-11-22T11:34:44.148Z,9.50
2022-11-22T11:37:23.620Z,9.80
2022-11-22T11:39:52.053Z,9.70
2022-11-22T11:42:31.337Z,10.00
2022-11-22T11:45:28.404Z,10.00
2022-11-22T11:47:56.898Z,9.90
2022-11-22T11:50:26.945Z,9.70
2022-11-22T11:52:57.393Z,9.70
2022-11-22T11:55:26.235Z,9.80
2022-11-22T11:57:55.149Z,9.70
2022-11-22T12:00:27.987Z,9.80
2022-11-22T12:03:01.471Z,9.90
2022-11-22T12:05:31.498Z,10.60
2022-11-22T12:08:01.252Z,12.50
2022-11-22T12:10:33.512Z,12.30
2022-11-22T12:13:07.141Z,12.30
2022-11-22T12:15:51.542Z,12.30
2022-11-22T12:18:36.171Z,12.60
2022-11-22T12:21:16.823Z,13.30
2022-11-22T12:23:52.060Z,12.70
2022-11-22T12:26:21.380Z,13.30
2022-11-22T12:28:50.403Z,13.60
2022-11-22T12:31:30.886Z,12.50
2022-11-22T12:34:02.173Z,12.50
2022-11-22T12:36:42.871Z,13.00
2022-11-22T12:39:15.911Z,12.50
2022-11-22T12:41:47.428Z,12.50
2022-11-22T12:44:19.245Z,12.40
2022-11-22T12:46:53.583Z,12.40
2022-11-22T12:49:31.301Z,13.40
2022-11-22T12:52:05.432Z,13.60
2022-11-22T12:54:38.346Z,12.90
2022-11-22T12:57:14.281Z,12.90
2022-11-22T12:59:51.193Z,13.40
2022-11-22T13:02:30.520Z,13.10
2022-11-22T13:05:02.881Z,13.70
2022-11-22T13:07:46.438Z,13.10
2022-11-22T13:10:32.962Z,12.70
2022-11-22T13:13:02.695Z,13.00
2022-11-22T13:15:33.151Z,13.20
2022-11-22T13:18:02.786Z,13.10
2022-11-22T13:20:41.162Z,12.50
2022-11-22T13:23:28.445Z,13.60
2022-11-22T13:26:09.179Z,14.40
2022-11-22T13:28:42.580Z,14.60
2022-11-22T13:31:19.512Z,15.60
2022-11-22T13:33:58.127Z,15.80
2022-11-22T13:36:38.705Z,14.30
2022-11-22T13:39:13.340Z,14.90
2022-11-22T13:41:54.527Z,15.40
2022-11-22T13:45:01.052Z,15.30
2022-11-22T13:47:43.412Z,15.00
2022-11-22T13:50:54.668Z,14.70
2022-11-22T13:53:30.152Z,14.60
2022-11-22T13:56:20.446Z,14.10
2022-11-22T13:58:55.599Z,13.80
2022-11-22T14:01:57.974Z,14.70
2022-11-22T14:04:44.575Z,14.40
2022-11-22T14:07:35.320Z,14.80
2022-11-22T14:10:25.329Z,14.50
2022-11-22T14:13:27.452Z,15.10
2022-11-22T14:16:17.909Z,14.80
2022-11-22T14:18:56.687Z,13.80
2022-11-22T14:21:45.034Z,14.80
2022-11-22T14:24:25.619Z,14.90
2022-11-22T14:27:01.373Z,15.40
2022-11-22T14:30:03.503Z,14.80
2022-11-22T14:32:43.950Z,15.30
2022-11-22T14:35:28.965Z,15.10
2022-11-22T14:38:29.081Z,15.00
2022-11-22T14:41:30.929Z,14.90
2022-11-22T14:44:03.721Z,15.00
2022-11-22T14:46:52.751Z,14.90
2022-11-22T14:49:29.631Z,14.60
2022-11-22T14:51:59.800Z,15.00
2022-11-22T14:54:31.001Z,15.00
2022-11-22T14:57:04.672Z,14.90
2022-11-22T15:00:07.369Z,15.60
2022-11-22T15:03:12.677Z,15.40
2022-11-22T15:09:17.681Z,15.00
2022-11-22T15:09:20.505Z,15.10
2022-11-22T15:12:02.503Z,14.90
2022-11-22T15:58:14.441Z,15.30
2022-11-22T16:00:45.630Z,14.20
2022-11-22T16:03:25.633Z,13.80
2022-11-22T16:06:05.856Z,13.50
2022-11-22T16:08:40.765Z,13.50
2022-11-22T16:11:18.958Z,14.40
2022-11-22T16:13:47.508Z,13.60
2022-11-22T16:16:21.567Z,13.80
2022-11-22T16:18:50.840Z,14.00
2022-11-22T16:21:22.523Z,13.10
2022-11-22T16:24:12.761Z,13.50
2022-11-22T16:26:41.498Z,13.20
2022-11-22T16:29:25.030Z,13.10
2022-11-22T16:32:01.962Z,12.70
2022-11-22T16:34:30.440Z,12.80
2022-11-22T16:36:59.033Z,13.10
2022-11-22T16:39:29.253Z,13.00
2022-11-22T16:41:57.758Z,12.80
2022-11-22T16:44:27.167Z,12.30
2022-11-22T16:46:55.657Z,11.10
2022-11-22T16:49:24.253Z,10.80
2022-11-22T16:51:52.902Z,10.70
2022-11-22T16:54:23.885Z,10.60
2022-11-22T16:56:53.593Z,10.50
2022-11-22T16:59:22.160Z,10.50
2022-11-22T17:01:50.933Z,10.40
2022-11-22T17:04:24.305Z,10.30
2022-11-22T17:06:52.840Z,10.40
2022-11-22T17:09:21.116Z,10.30
2022-11-22T17:11:50.310Z,10.30
2022-11-22T17:14:20.817Z,10.20
2022-11-22T17:16:49.210Z,10.20
2022-11-22T17:19:51.612Z,10.30
2022-11-22T17:22:07.166Z,10.30
2022-11-22T17:24:36.059Z,10.70
2022-11-22T17:27:04.515Z,10.90
2022-11-22T17:29:49.805Z,11.60
2022-11-22T17:32:18.732Z,11.50
2022-11-22T17:34:47.124Z,11.70
2022-11-22T17:37:15.433Z,11.90
2022-11-22T17:39:43.875Z,11.90
2022-11-22T17:42:12.768Z,11.50
2022-11-22T17:44:42.483Z,11.40
2022-11-22T17:47:10.905Z,11.70
2022-11-22T17:49:39.238Z,12.10
2022-11-22T17:52:07.719Z,12.00
2022-11-22T17:54:36.116Z,11.60
2022-11-22T17:57:04.814Z,11.50
2022-11-22T17:59:33.561Z,11.40
2022-11-22T18:02:03.791Z,11.70
2022-11-22T18:04:32.281Z,11.40
2022-11-22T18:07:00.832Z,11.30
2022-11-22T18:09:29.120Z,11.10
2022-11-22T18:11:58.037Z,11.20
2022-11-22T18:14:27.602Z,11.30
2022-11-22T18:16:55.978Z,11.60
2022-11-22T18:19:25.489Z,11.40
2022-11-22T18:21:54.124Z,11.30
2022-11-22T18:24:22.970Z,11.60
2022-11-22T18:26:51.550Z,11.30
2022-11-22T18:29:41.659Z,11.00
2022-11-22T18:32:08.873Z,11.30
2022-11-22T18:34:38.349Z,11.00
2022-11-22T18:37:06.857Z,10.70
2022-11-22T18:39:37.501Z,10.70
2022-11-22T18:42:07.315Z,10.90
2022-11-22T18:44:35.862Z,10.80
2022-11-22T18:47:04.418Z,10.70
2022-11-22T18:49:33.330Z,10.70
2022-11-22T18:52:03.719Z,10.70
2022-11-22T18:54:32.445Z,10.60
2022-11-22T18:57:00.920Z,10.60
2022-11-22T18:59:29.170Z,10.50
2022-11-22T19:01:57.636Z,10.40
2022-11-22T19:04:26.069Z,10.60
2022-11-22T19:06:55.531Z,10.60
2022-11-22T19:09:25.344Z,10.40
2022-11-22T19:11:58.401Z,10.30
2022-11-22T19:14:29.066Z,10.30
2022-11-22T19:16:57.952Z,10.40
2022-11-22T19:19:26.507Z,10.50
2022-11-22T19:21:54.894Z,10.40
2022-11-22T19:24:24.390Z,10.50
2022-11-22T19:26:52.984Z,10.40
2022-11-22T19:29:21.725Z,10.80
2022-11-22T19:31:50.169Z,10.70
2022-11-22T19:34:18.641Z,10.60
2022-11-22T19:36:47.277Z,10.80
2022-11-22T19:39:16.787Z,10.90
2022-11-22T19:41:46.491Z,10.80
2022-11-22T19:44:14.932Z,11.00
2022-11-22T19:46:43.324Z,10.70
2022-11-22T19:49:11.892Z,10.50
2022-11-22T19:51:40.436Z,10.60
2022-11-22T19:54:08.890Z,10.50
2022-11-22T19:56:38.930Z,10.40
2022-11-22T19:59:12.923Z,10.30
2022-11-22T20:01:41.433Z,10.30
2022-11-22T20:04:11.750Z,10.50
2022-11-22T20:06:40.486Z,10.40
2022-11-22T20:09:10.642Z,10.40
2022-11-22T20:11:39.745Z,10.30
2022-11-22T20:14:10.489Z,10.30
2022-11-22T20:16:41.303Z,10.20
2022-11-22T20:19:11.354Z,10.20
2022-11-22T20:21:40.126Z,10.10
2022-11-22T20:24:08.998Z,10.20
2022-11-22T20:26:37.455Z,10.20
2022-11-22T20:29:07.438Z,10.30
2022-11-22T20:31:37.944Z,10.40
2022-11-22T20:34:06.733Z,10.30
2022-11-22T20:36:36.370Z,10.20
2022-11-22T20:39:10.512Z,10.10
2022-11-22T20:41:40.106Z,10.10
2022-11-22T20:44:12.224Z,10.20
2022-11-22T20:46:42.280Z,10.20
2022-11-22T20:49:10.718Z,10.10
2022-11-22T20:51:40.038Z,10.10
2022-11-22T20:54:09.337Z,10.10
2022-11-22T20:56:38.429Z,10.00
2022-11-22T20:59:07.381Z,10.00
2022-11-22T21:01:35.902Z,10.00
2022-11-22T21:04:05.860Z,10.00
2022-11-22T21:06:35.072Z,9.90
2022-11-22T21:09:03.770Z,9.90
2022-11-22T21:11:32.200Z,9.90
2022-11-22T21:14:00.844Z,9.80
2022-11-22T21:16:30.261Z,9.70
2022-11-22T21:18:59.445Z,9.80
2022-11-22T21:21:29.951Z,9.80
2022-11-22T21:23:59.398Z,9.70
2022-11-22T21:26:27.950Z,9.70
2022-11-22T21:28:56.423Z,9.60
2022-11-22T21:31:25.026Z,9.50
2022-11-22T21:33:54.124Z,9.50
2022-11-22T21:36:22.921Z,9.40
2022-11-22T21:38:52.400Z,9.50
2022-11-22T21:44:11.319Z,9.40
2022-11-22T21:46:39.990Z,9.60
2022-11-22T21:49:08.602Z,9.70
2022-11-22T21:51:37.026Z,9.70
2022-11-22T21:54:06.965Z,9.60
2022-11-22T21:56:35.521Z,9.60
2022-11-22T21:59:03.934Z,9.50
2022-11-22T22:01:32.760Z,9.50
2022-11-22T22:04:01.212Z,9.50
2022-11-22T22:06:29.623Z,9.50
2022-11-22T22:08:58.147Z,9.50
2022-11-22T22:11:27.907Z,9.60
2022-11-22T22:13:58.193Z,9.50
2022-11-22T22:16:26.958Z,9.50
2022-11-22T22:18:55.542Z,9.70
2022-11-22T22:21:23.647Z,9.60
2022-11-22T22:23:53.696Z,9.40
2022-11-22T22:26:21.949Z,9.50
2022-11-22T22:28:53.114Z,9.80
2022-11-22T22:31:23.023Z,9.90
2022-11-22T22:33:52.516Z,10.20
2022-11-22T22:36:21.341Z,9.90
2022-11-22T22:38:49.752Z,9.70
2022-11-22T22:41:18.365Z,9.60
2022-11-22T22:43:48.884Z,9.90
2022-11-22T22:46:20.383Z,10.20
2022-11-22T22:48:49.292Z,10.50
2022-11-22T22:51:18.820Z,10.40
2022-11-22T22:53:47.834Z,10.20
2022-11-22T22:56:17.956Z,10.40
2022-11-22T22:58:46.449Z,10.20
2022-11-22T23:01:17.321Z,10.30
2022-11-22T23:03:51.531Z,10.30
2022-11-22T23:06:20.729Z,10.20
2022-11-22T23:08:50.659Z,10.10
2022-11-22T23:11:22.813Z,10.30
2022-11-22T23:13:51.188Z,10.90
2022-11-22T23:16:19.606Z,10.60
2022-11-22T23:18:47.981Z,10.50
2022-11-22T23:21:17.474Z,10.40
2022-11-22T23:23:45.941Z,10.40
2022-11-22T23:26:14.628Z,10.40
2022-11-22T23:28:42.907Z,10.30
2022-11-22T23:31:14.336Z,10.20
2022-11-22T23:33:43.846Z,10.10
2022-11-22T23:36:14.574Z,10.10
2022-11-22T23:38:44.349Z,9.90
2022-11-22T23:41:14.005Z,10.00
2022-11-22T23:43:42.692Z,10.00
2022-11-22T23:46:16.130Z,9.80
2022-11-22T23:48:45.285Z,9.70
2022-11-22T23:51:14.289Z,10.00
2022-11-22T23:53:43.985Z,10.10
2022-11-22T23:56:20.300Z,10.00
2022-11-22T23:58:50.038Z,9.80
